sensor_id;sensor_type;location;lat;lon;timestamp;P1;durP1;ratioP1;P2;durP2;ratioP2
67902;SDS011;54708;43.612;1.568;2023-03-15T00:00:35;24.35;;;5.55;;
67902;SDS011;54708;43.612;1.568;2023-03-15T00:03:01;30.90;;;6.05;;
67902;SDS011;54708;43.612;1.568;2023-03-15T00:05:28;26.08;;;4.90;;
67902;SDS011;54708;43.612;1.568;2023-03-15T00:07:53;20.05;;;4.57;;
67902;SDS011;54708;43.612;1.568;2023-03-15T00:10:19;22.10;;;5.63;;
67902;SDS011;54708;43.612;1.568;2023-03-15T00:12:45;27.92;;;4.43;;
67902;SDS011;54708;43.612;1.568;2023-03-15T00:15:12;30.58;;;5.50;;
67902;SDS011;54708;43.612;1.568;2023-03-15T00:17:39;30.27;;;5.78;;
67902;SDS011;54708;43.612;1.568;2023-03-15T00:20:04;32.38;;;4.95;;
67902;SDS011;54708;43.612;1.568;2023-03-15T00:22:30;26.13;;;4.90;;
67902;SDS011;54708;43.612;1.568;2023-03-15T00:24:56;22.58;;;4.25;;
67902;SDS011;54708;43.612;1.568;2023-03-15T00:27:21;20.80;;;4.97;;
67902;SDS011;54708;43.612;1.568;2023-03-15T00:29:47;26.33;;;5.60;;
67902;SDS011;54708;43.612;1.568;2023-03-15T00:32:12;24.00;;;4.55;;
67902;SDS011;54708;43.612;1.568;2023-03-15T00:34:37;22.45;;;5.80;;
67902;SDS011;54708;43.612;1.568;2023-03-15T00:37:03;24.58;;;5.15;;
67902;SDS011;54708;43.612;1.568;2023-03-15T00:39:28;27.02;;;5.75;;
67902;SDS011;54708;43.612;1.568;2023-03-15T00:41:54;24.58;;;5.53;;
67902;SDS011;54708;43.612;1.568;2023-03-15T00:44:21;22.55;;;5.25;;
67902;SDS011;54708;43.612;1.568;2023-03-15T00:46:48;21.75;;;5.38;;
67902;SDS011;54708;43.612;1.568;2023-03-15T00:49:13;35.88;;;6.65;;
67902;SDS011;54708;43.612;1.568;2023-03-15T00:51:38;24.80;;;6.30;;
67902;SDS011;54708;43.612;1.568;2023-03-15T00:54:04;24.15;;;6.13;;
67902;SDS011;54708;43.612;1.568;2023-03-15T00:56:29;15.50;;;4.80;;
67902;SDS011;54708;43.612;1.568;2023-03-15T00:58:55;23.92;;;5.70;;
67902;SDS011;54708;43.612;1.568;2023-03-15T01:01:23;21.27;;;5.97;;
67902;SDS011;54708;43.612;1.568;2023-03-15T01:03:50;28.00;;;5.80;;
67902;SDS011;54708;43.612;1.568;2023-03-15T01:06:17;28.58;;;5.57;;
67902;SDS011;54708;43.612;1.568;2023-03-15T01:08:46;24.23;;;4.68;;
67902;SDS011;54708;43.612;1.568;2023-03-15T01:11:20;31.65;;;4.45;;
67902;SDS011;54708;43.612;1.568;2023-03-15T01:13:48;30.48;;;7.15;;
67902;SDS011;54708;43.612;1.568;2023-03-15T01:16:15;22.55;;;4.65;;
67902;SDS011;54708;43.612;1.568;2023-03-15T01:18:40;20.13;;;5.05;;
67902;SDS011;54708;43.612;1.568;2023-03-15T01:21:07;23.60;;;5.00;;
67902;SDS011;54708;43.612;1.568;2023-03-15T01:23:33;30.27;;;5.05;;
67902;SDS011;54708;43.612;1.568;2023-03-15T01:26:03;34.08;;;6.10;;
67902;SDS011;54708;43.612;1.568;2023-03-15T01:28:29;28.60;;;5.68;;
67902;SDS011;54708;43.612;1.568;2023-03-15T01:30:55;23.85;;;4.47;;
67902;SDS011;54708;43.612;1.568;2023-03-15T01:33:20;21.88;;;4.28;;
67902;SDS011;54708;43.612;1.568;2023-03-15T01:35:46;29.48;;;4.72;;
67902;SDS011;54708;43.612;1.568;2023-03-15T01:38:12;17.70;;;4.07;;
67902;SDS011;54708;43.612;1.568;2023-03-15T01:40:41;29.27;;;5.82;;
67902;SDS011;54708;43.612;1.568;2023-03-15T01:48:29;22.42;;;5.13;;
67902;SDS011;54708;43.612;1.568;2023-03-15T01:51:05;21.88;;;4.15;;
67902;SDS011;54708;43.612;1.568;2023-03-15T01:54:02;22.25;;;4.28;;
67902;SDS011;54708;43.612;1.568;2023-03-15T01:56:31;26.35;;;4.55;;
67902;SDS011;54708;43.612;1.568;2023-03-15T01:58:58;19.30;;;4.68;;
67902;SDS011;54708;43.612;1.568;2023-03-15T02:01:25;18.08;;;3.92;;
67902;SDS011;54708;43.612;1.568;2023-03-15T02:03:56;24.08;;;3.80;;
67902;SDS011;54708;43.612;1.568;2023-03-15T02:06:26;16.70;;;4.15;;
67902;SDS011;54708;43.612;1.568;2023-03-15T02:08:56;20.02;;;4.22;;
67902;SDS011;54708;43.612;1.568;2023-03-15T02:11:24;14.80;;;4.22;;
67902;SDS011;54708;43.612;1.568;2023-03-15T02:13:50;17.35;;;4.45;;
67902;SDS011;54708;43.612;1.568;2023-03-15T02:16:17;20.40;;;4.80;;
67902;SDS011;54708;43.612;1.568;2023-03-15T02:18:42;19.23;;;4.22;;
67902;SDS011;54708;43.612;1.568;2023-03-15T02:21:13;14.85;;;3.58;;
67902;SDS011;54708;43.612;1.568;2023-03-15T02:27:08;29.67;;;4.60;;
67902;SDS011;54708;43.612;1.568;2023-03-15T02:29:33;14.23;;;3.50;;
67902;SDS011;54708;43.612;1.568;2023-03-15T02:31:59;16.60;;;3.30;;
67902;SDS011;54708;43.612;1.568;2023-03-15T02:34:28;16.92;;;4.65;;
67902;SDS011;54708;43.612;1.568;2023-03-15T02:36:55;14.32;;;3.70;;
67902;SDS011;54708;43.612;1.568;2023-03-15T02:39:21;20.00;;;4.63;;
67902;SDS011;54708;43.612;1.568;2023-03-15T02:41:57;19.92;;;4.70;;
67902;SDS011;54708;43.612;1.568;2023-03-15T02:47:02;14.30;;;3.30;;
67902;SDS011;54708;43.612;1.568;2023-03-15T02:49:30;19.23;;;3.92;;
67902;SDS011;54708;43.612;1.568;2023-03-15T02:51:59;18.83;;;4.22;;
67902;SDS011;54708;43.612;1.568;2023-03-15T02:54:24;23.88;;;5.05;;
67902;SDS011;54708;43.612;1.568;2023-03-15T02:56:49;22.10;;;4.05;;
67902;SDS011;54708;43.612;1.568;2023-03-15T02:59:15;22.67;;;5.28;;
67902;SDS011;54708;43.612;1.568;2023-03-15T03:01:40;20.45;;;4.50;;
67902;SDS011;54708;43.612;1.568;2023-03-15T03:04:07;25.15;;;5.22;;
67902;SDS011;54708;43.612;1.568;2023-03-15T03:06:33;13.30;;;3.50;;
67902;SDS011;54708;43.612;1.568;2023-03-15T03:08:58;20.02;;;4.75;;
67902;SDS011;54708;43.612;1.568;2023-03-15T03:11:23;20.35;;;3.55;;
67902;SDS011;54708;43.612;1.568;2023-03-15T03:13:49;22.55;;;4.13;;
67902;SDS011;54708;43.612;1.568;2023-03-15T03:16:15;16.98;;;3.70;;
67902;SDS011;54708;43.612;1.568;2023-03-15T03:18:40;15.32;;;3.03;;
67902;SDS011;54708;43.612;1.568;2023-03-15T03:21:06;16.48;;;3.58;;
67902;SDS011;54708;43.612;1.568;2023-03-15T03:23:32;11.20;;;3.97;;
67902;SDS011;54708;43.612;1.568;2023-03-15T03:25:59;14.55;;;3.72;;
67902;SDS011;54708;43.612;1.568;2023-03-15T03:28:26;19.77;;;4.35;;
67902;SDS011;54708;43.612;1.568;2023-03-15T03:30:53;22.77;;;4.40;;
67902;SDS011;54708;43.612;1.568;2023-03-15T03:33:20;25.63;;;4.15;;
67902;SDS011;54708;43.612;1.568;2023-03-15T03:35:45;19.58;;;4.72;;
67902;SDS011;54708;43.612;1.568;2023-03-15T03:38:11;21.63;;;3.55;;
67902;SDS011;54708;43.612;1.568;2023-03-15T03:40:37;14.15;;;3.45;;
67902;SDS011;54708;43.612;1.568;2023-03-15T03:43:03;29.58;;;4.35;;
67902;SDS011;54708;43.612;1.568;2023-03-15T03:45:28;17.58;;;3.78;;
67902;SDS011;54708;43.612;1.568;2023-03-15T03:47:54;12.82;;;3.55;;
67902;SDS011;54708;43.612;1.568;2023-03-15T03:50:19;18.42;;;3.80;;
67902;SDS011;54708;43.612;1.568;2023-03-15T03:52:45;9.10;;;2.72;;
67902;SDS011;54708;43.612;1.568;2023-03-15T03:55:10;22.63;;;3.58;;
67902;SDS011;54708;43.612;1.568;2023-03-15T03:57:39;18.67;;;3.33;;
67902;SDS011;54708;43.612;1.568;2023-03-15T04:00:05;14.55;;;3.15;;
67902;SDS011;54708;43.612;1.568;2023-03-15T04:02:33;13.80;;;3.90;;
67902;SDS011;54708;43.612;1.568;2023-03-15T04:04:59;8.80;;;3.08;;
67902;SDS011;54708;43.612;1.568;2023-03-15T04:07:24;15.25;;;5.55;;
67902;SDS011;54708;43.612;1.568;2023-03-15T04:09:50;16.92;;;3.25;;
67902;SDS011;54708;43.612;1.568;2023-03-15T04:12:15;13.98;;;2.83;;
67902;SDS011;54708;43.612;1.568;2023-03-15T04:14:41;9.88;;;4.15;;
67902;SDS011;54708;43.612;1.568;2023-03-15T04:17:06;22.65;;;4.30;;
67902;SDS011;54708;43.612;1.568;2023-03-15T04:19:33;20.33;;;4.43;;
67902;SDS011;54708;43.612;1.568;2023-03-15T04:21:58;16.45;;;3.65;;
67902;SDS011;54708;43.612;1.568;2023-03-15T04:24:30;14.83;;;3.90;;
67902;SDS011;54708;43.612;1.568;2023-03-15T04:26:59;27.13;;;5.00;;
67902;SDS011;54708;43.612;1.568;2023-03-15T04:29:24;12.20;;;3.45;;
67902;SDS011;54708;43.612;1.568;2023-03-15T04:31:50;21.83;;;4.35;;
67902;SDS011;54708;43.612;1.568;2023-03-15T04:34:15;13.80;;;4.07;;
67902;SDS011;54708;43.612;1.568;2023-03-15T04:36:40;18.98;;;3.22;;
67902;SDS011;54708;43.612;1.568;2023-03-15T04:39:06;22.02;;;4.15;;
67902;SDS011;54708;43.612;1.568;2023-03-15T04:41:32;17.92;;;3.72;;
67902;SDS011;54708;43.612;1.568;2023-03-15T04:44:04;14.30;;;4.53;;
67902;SDS011;54708;43.612;1.568;2023-03-15T04:46:30;21.20;;;4.50;;
67902;SDS011;54708;43.612;1.568;2023-03-15T04:48:56;14.80;;;3.63;;
67902;SDS011;54708;43.612;1.568;2023-03-15T04:51:22;10.18;;;2.30;;
67902;SDS011;54708;43.612;1.568;2023-03-15T04:53:47;21.05;;;4.97;;
67902;SDS011;54708;43.612;1.568;2023-03-15T04:56:13;19.35;;;5.18;;
67902;SDS011;54708;43.612;1.568;2023-03-15T04:58:38;20.75;;;4.20;;
67902;SDS011;54708;43.612;1.568;2023-03-15T05:01:03;15.25;;;3.58;;
67902;SDS011;54708;43.612;1.568;2023-03-15T05:03:29;19.70;;;4.68;;
67902;SDS011;54708;43.612;1.568;2023-03-15T05:05:55;20.35;;;3.13;;
67902;SDS011;54708;43.612;1.568;2023-03-15T05:08:20;12.20;;;3.33;;
67902;SDS011;54708;43.612;1.568;2023-03-15T05:10:46;10.65;;;2.95;;
67902;SDS011;54708;43.612;1.568;2023-03-15T05:13:11;10.95;;;3.92;;
67902;SDS011;54708;43.612;1.568;2023-03-15T05:15:36;19.20;;;4.00;;
67902;SDS011;54708;43.612;1.568;2023-03-15T05:18:02;12.10;;;3.50;;
67902;SDS011;54708;43.612;1.568;2023-03-15T05:20:28;14.50;;;3.60;;
67902;SDS011;54708;43.612;1.568;2023-03-15T05:22:53;16.52;;;4.88;;
67902;SDS011;54708;43.612;1.568;2023-03-15T05:25:19;14.05;;;2.60;;
67902;SDS011;54708;43.612;1.568;2023-03-15T05:27:44;12.20;;;3.65;;
67902;SDS011;54708;43.612;1.568;2023-03-15T05:30:10;14.13;;;3.72;;
67902;SDS011;54708;43.612;1.568;2023-03-15T05:32:36;17.33;;;3.58;;
67902;SDS011;54708;43.612;1.568;2023-03-15T05:35:04;13.13;;;3.47;;
67902;SDS011;54708;43.612;1.568;2023-03-15T05:37:30;13.05;;;3.03;;
67902;SDS011;54708;43.612;1.568;2023-03-15T05:39:56;13.98;;;4.10;;
67902;SDS011;54708;43.612;1.568;2023-03-15T05:42:22;12.95;;;3.38;;
67902;SDS011;54708;43.612;1.568;2023-03-15T05:44:51;14.30;;;3.40;;
67902;SDS011;54708;43.612;1.568;2023-03-15T05:47:17;13.23;;;3.00;;
67902;SDS011;54708;43.612;1.568;2023-03-15T05:49:43;16.88;;;3.72;;
67902;SDS011;54708;43.612;1.568;2023-03-15T05:52:08;15.05;;;2.85;;
67902;SDS011;54708;43.612;1.568;2023-03-15T05:54:34;12.75;;;2.80;;
67902;SDS011;54708;43.612;1.568;2023-03-15T05:56:59;15.93;;;3.97;;
67902;SDS011;54708;43.612;1.568;2023-03-15T05:59:24;13.82;;;3.95;;
67902;SDS011;54708;43.612;1.568;2023-03-15T06:01:50;14.18;;;3.15;;
67902;SDS011;54708;43.612;1.568;2023-03-15T06:04:15;13.73;;;2.88;;
67902;SDS011;54708;43.612;1.568;2023-03-15T06:06:41;15.98;;;2.28;;
67902;SDS011;54708;43.612;1.568;2023-03-15T06:09:06;11.07;;;3.33;;
67902;SDS011;54708;43.612;1.568;2023-03-15T06:11:32;8.40;;;2.72;;
67902;SDS011;54708;43.612;1.568;2023-03-15T06:13:57;12.30;;;3.20;;
67902;SDS011;54708;43.612;1.568;2023-03-15T06:16:22;13.13;;;2.95;;
67902;SDS011;54708;43.612;1.568;2023-03-15T06:18:48;13.13;;;3.28;;
67902;SDS011;54708;43.612;1.568;2023-03-15T06:21:13;13.88;;;3.33;;
67902;SDS011;54708;43.612;1.568;2023-03-15T06:23:39;14.65;;;2.83;;
67902;SDS011;54708;43.612;1.568;2023-03-15T06:26:04;10.48;;;3.20;;
67902;SDS011;54708;43.612;1.568;2023-03-15T06:28:29;14.75;;;3.80;;
67902;SDS011;54708;43.612;1.568;2023-03-15T06:30:55;14.98;;;3.00;;
67902;SDS011;54708;43.612;1.568;2023-03-15T06:33:20;9.52;;;2.75;;
67902;SDS011;54708;43.612;1.568;2023-03-15T06:35:46;5.97;;;2.42;;
67902;SDS011;54708;43.612;1.568;2023-03-15T06:38:11;7.45;;;2.53;;
67902;SDS011;54708;43.612;1.568;2023-03-15T06:40:37;15.48;;;3.25;;
67902;SDS011;54708;43.612;1.568;2023-03-15T06:43:03;7.18;;;2.30;;
67902;SDS011;54708;43.612;1.568;2023-03-15T06:45:30;25.05;;;4.03;;
67902;SDS011;54708;43.612;1.568;2023-03-15T06:47:56;6.72;;;2.58;;
67902;SDS011;54708;43.612;1.568;2023-03-15T06:50:22;11.30;;;3.10;;
67902;SDS011;54708;43.612;1.568;2023-03-15T06:52:47;13.13;;;2.65;;
67902;SDS011;54708;43.612;1.568;2023-03-15T06:55:13;10.32;;;3.58;;
67902;SDS011;54708;43.612;1.568;2023-03-15T06:57:43;13.10;;;2.47;;
67902;SDS011;54708;43.612;1.568;2023-03-15T07:00:09;15.15;;;3.45;;
67902;SDS011;54708;43.612;1.568;2023-03-15T07:02:35;8.65;;;2.97;;
67902;SDS011;54708;43.612;1.568;2023-03-15T07:05:02;14.50;;;2.88;;
67902;SDS011;54708;43.612;1.568;2023-03-15T07:07:28;10.20;;;2.70;;
67902;SDS011;54708;43.612;1.568;2023-03-15T07:09:53;11.75;;;2.65;;
67902;SDS011;54708;43.612;1.568;2023-03-15T07:12:19;9.35;;;2.65;;
67902;SDS011;54708;43.612;1.568;2023-03-15T07:14:44;21.63;;;3.22;;
67902;SDS011;54708;43.612;1.568;2023-03-15T07:17:10;9.15;;;2.60;;
67902;SDS011;54708;43.612;1.568;2023-03-15T07:19:36;10.75;;;2.08;;
67902;SDS011;54708;43.612;1.568;2023-03-15T07:22:01;7.57;;;2.72;;
67902;SDS011;54708;43.612;1.568;2023-03-15T07:24:27;12.93;;;3.33;;
67902;SDS011;54708;43.612;1.568;2023-03-15T07:26:52;12.93;;;3.03;;
67902;SDS011;54708;43.612;1.568;2023-03-15T07:29:21;19.58;;;2.90;;
67902;SDS011;54708;43.612;1.568;2023-03-15T07:31:47;7.35;;;2.63;;
67902;SDS011;54708;43.612;1.568;2023-03-15T07:34:13;15.18;;;2.80;;
67902;SDS011;54708;43.612;1.568;2023-03-15T07:36:38;10.80;;;3.03;;
67902;SDS011;54708;43.612;1.568;2023-03-15T07:39:04;9.15;;;2.97;;
67902;SDS011;54708;43.612;1.568;2023-03-15T07:41:29;11.23;;;2.53;;
67902;SDS011;54708;43.612;1.568;2023-03-15T07:43:55;7.15;;;2.38;;
67902;SDS011;54708;43.612;1.568;2023-03-15T07:46:20;7.53;;;2.70;;
67902;SDS011;54708;43.612;1.568;2023-03-15T07:48:46;11.07;;;2.63;;
67902;SDS011;54708;43.612;1.568;2023-03-15T07:51:11;8.77;;;2.90;;
67902;SDS011;54708;43.612;1.568;2023-03-15T07:53:37;11.80;;;3.00;;
67902;SDS011;54708;43.612;1.568;2023-03-15T07:56:02;11.50;;;2.85;;
67902;SDS011;54708;43.612;1.568;2023-03-15T07:58:28;6.10;;;2.30;;
67902;SDS011;54708;43.612;1.568;2023-03-15T08:00:54;9.82;;;2.15;;
67902;SDS011;54708;43.612;1.568;2023-03-15T08:03:20;10.00;;;3.22;;
67902;SDS011;54708;43.612;1.568;2023-03-15T08:05:46;15.65;;;2.38;;
67902;SDS011;54708;43.612;1.568;2023-03-15T08:08:11;11.55;;;3.92;;
67902;SDS011;54708;43.612;1.568;2023-03-15T08:10:36;10.23;;;3.05;;
67902;SDS011;54708;43.612;1.568;2023-03-15T08:13:02;8.40;;;2.45;;
67902;SDS011;54708;43.612;1.568;2023-03-15T08:15:27;8.15;;;2.58;;
67902;SDS011;54708;43.612;1.568;2023-03-15T08:17:53;7.15;;;2.47;;
67902;SDS011;54708;43.612;1.568;2023-03-15T08:20:18;10.55;;;2.67;;
67902;SDS011;54708;43.612;1.568;2023-03-15T08:22:47;11.73;;;2.30;;
67902;SDS011;54708;43.612;1.568;2023-03-15T08:25:14;7.43;;;3.10;;
67902;SDS011;54708;43.612;1.568;2023-03-15T08:27:42;13.05;;;4.35;;
67902;SDS011;54708;43.612;1.568;2023-03-15T08:30:09;5.32;;;2.78;;
67902;SDS011;54708;43.612;1.568;2023-03-15T08:32:36;12.57;;;3.30;;
67902;SDS011;54708;43.612;1.568;2023-03-15T08:35:03;9.48;;;2.75;;
67902;SDS011;54708;43.612;1.568;2023-03-15T08:37:29;6.95;;;2.28;;
67902;SDS011;54708;43.612;1.568;2023-03-15T08:39:54;8.65;;;2.80;;
67902;SDS011;54708;43.612;1.568;2023-03-15T08:42:29;7.97;;;2.97;;
67902;SDS011;54708;43.612;1.568;2023-03-15T08:44:54;6.93;;;3.10;;
67902;SDS011;54708;43.612;1.568;2023-03-15T08:47:25;9.60;;;3.72;;
67902;SDS011;54708;43.612;1.568;2023-03-15T08:49:51;12.20;;;2.00;;
67902;SDS011;54708;43.612;1.568;2023-03-15T08:52:17;7.45;;;2.17;;
67902;SDS011;54708;43.612;1.568;2023-03-15T08:54:43;8.40;;;1.90;;
67902;SDS011;54708;43.612;1.568;2023-03-15T08:57:09;17.13;;;3.50;;
67902;SDS011;54708;43.612;1.568;2023-03-15T08:59:36;7.68;;;3.17;;
67902;SDS011;54708;43.612;1.568;2023-03-15T09:02:02;3.72;;;2.20;;
67902;SDS011;54708;43.612;1.568;2023-03-15T09:04:28;8.43;;;1.98;;
67902;SDS011;54708;43.612;1.568;2023-03-15T09:06:54;9.25;;;3.25;;
67902;SDS011;54708;43.612;1.568;2023-03-15T09:09:19;9.32;;;2.28;;
67902;SDS011;54708;43.612;1.568;2023-03-15T09:11:45;7.97;;;2.50;;
67902;SDS011;54708;43.612;1.568;2023-03-15T09:14:10;9.75;;;2.88;;
67902;SDS011;54708;43.612;1.568;2023-03-15T09:16:35;7.82;;;2.15;;
67902;SDS011;54708;43.612;1.568;2023-03-15T09:19:01;7.63;;;2.92;;
67902;SDS011;54708;43.612;1.568;2023-03-15T09:21:26;9.75;;;3.92;;
67902;SDS011;54708;43.612;1.568;2023-03-15T09:23:52;7.22;;;2.80;;
67902;SDS011;54708;43.612;1.568;2023-03-15T09:26:18;10.38;;;2.38;;
67902;SDS011;54708;43.612;1.568;2023-03-15T09:28:43;11.45;;;3.53;;
67902;SDS011;54708;43.612;1.568;2023-03-15T09:31:09;2.85;;;1.85;;
67902;SDS011;54708;43.612;1.568;2023-03-15T09:33:35;9.38;;;2.42;;
67902;SDS011;54708;43.612;1.568;2023-03-15T09:36:01;9.50;;;2.13;;
67902;SDS011;54708;43.612;1.568;2023-03-15T09:38:26;9.07;;;2.35;;
67902;SDS011;54708;43.612;1.568;2023-03-15T09:40:55;6.32;;;2.47;;
67902;SDS011;54708;43.612;1.568;2023-03-15T09:48:32;5.97;;;2.38;;
67902;SDS011;54708;43.612;1.568;2023-03-15T09:51:01;7.68;;;1.63;;
67902;SDS011;54708;43.612;1.568;2023-03-15T09:56:02;7.03;;;1.83;;
67902;SDS011;54708;43.612;1.568;2023-03-15T09:58:27;6.80;;;2.22;;
67902;SDS011;54708;43.612;1.568;2023-03-15T10:00:59;7.55;;;2.08;;
67902;SDS011;54708;43.612;1.568;2023-03-15T10:06:22;2.50;;;1.08;;
67902;SDS011;54708;43.612;1.568;2023-03-15T10:08:54;5.00;;;1.52;;
67902;SDS011;54708;43.612;1.568;2023-03-15T10:17:13;5.70;;;1.40;;
67902;SDS011;54708;43.612;1.568;2023-03-15T10:24:54;6.18;;;2.25;;
67902;SDS011;54708;43.612;1.568;2023-03-15T10:30:12;3.58;;;1.33;;
67902;SDS011;54708;43.612;1.568;2023-03-15T10:32:41;3.15;;;1.38;;
67902;SDS011;54708;43.612;1.568;2023-03-15T10:35:13;2.53;;;1.48;;
67902;SDS011;54708;43.612;1.568;2023-03-15T10:37:41;1.92;;;1.25;;
67902;SDS011;54708;43.612;1.568;2023-03-15T10:40:07;4.00;;;1.45;;
67902;SDS011;54708;43.612;1.568;2023-03-15T10:45:12;5.38;;;1.73;;
67902;SDS011;54708;43.612;1.568;2023-03-15T10:47:48;3.33;;;1.27;;
67902;SDS011;54708;43.612;1.568;2023-03-15T10:50:33;1.95;;;1.10;;
67902;SDS011;54708;43.612;1.568;2023-03-15T10:53:07;5.07;;;1.30;;
67902;SDS011;54708;43.612;1.568;2023-03-15T10:55:35;3.42;;;1.38;;
67902;SDS011;54708;43.612;1.568;2023-03-15T10:58:16;3.58;;;1.20;;
67902;SDS011;54708;43.612;1.568;2023-03-15T11:00:58;2.03;;;1.10;;
67902;SDS011;54708;43.612;1.568;2023-03-15T11:03:26;5.50;;;2.47;;
67902;SDS011;54708;43.612;1.568;2023-03-15T11:05:52;5.88;;;1.50;;
67902;SDS011;54708;43.612;1.568;2023-03-15T11:08:20;2.22;;;1.08;;
67902;SDS011;54708;43.612;1.568;2023-03-15T11:10:54;4.97;;;1.65;;
67902;SDS011;54708;43.612;1.568;2023-03-15T11:13:25;4.28;;;1.05;;
67902;SDS011;54708;43.612;1.568;2023-03-15T11:16:00;5.47;;;0.95;;
67902;SDS011;54708;43.612;1.568;2023-03-15T11:18:35;2.40;;;1.00;;
67902;SDS011;54708;43.612;1.568;2023-03-15T11:21:24;4.07;;;1.30;;
67902;SDS011;54708;43.612;1.568;2023-03-15T11:23:50;2.67;;;1.35;;
67902;SDS011;54708;43.612;1.568;2023-03-15T11:26:18;4.00;;;0.95;;
67902;SDS011;54708;43.612;1.568;2023-03-15T11:28:52;3.55;;;1.90;;
67902;SDS011;54708;43.612;1.568;2023-03-15T11:31:21;3.97;;;1.33;;
67902;SDS011;54708;43.612;1.568;2023-03-15T11:33:57;1.63;;;1.00;;
67902;SDS011;54708;43.612;1.568;2023-03-15T11:36:28;2.53;;;0.98;;
67902;SDS011;54708;43.612;1.568;2023-03-15T11:38:55;2.00;;;1.02;;
67902;SDS011;54708;43.612;1.568;2023-03-15T11:41:29;1.10;;;0.80;;
67902;SDS011;54708;43.612;1.568;2023-03-15T11:46:49;6.03;;;1.20;;
67902;SDS011;54708;43.612;1.568;2023-03-15T11:49:30;2.05;;;1.38;;
67902;SDS011;54708;43.612;1.568;2023-03-15T11:51:59;3.50;;;0.80;;
67902;SDS011;54708;43.612;1.568;2023-03-15T11:54:28;4.45;;;1.20;;
67902;SDS011;54708;43.612;1.568;2023-03-15T11:59:36;1.63;;;0.70;;
67902;SDS011;54708;43.612;1.568;2023-03-15T12:07:03;1.20;;;1.10;;
67902;SDS011;54708;43.612;1.568;2023-03-15T12:12:00;2.95;;;0.95;;
67902;SDS011;54708;43.612;1.568;2023-03-15T12:20:35;2.92;;;0.80;;
67902;SDS011;54708;43.612;1.568;2023-03-15T12:22:51;4.47;;;1.20;;
67902;SDS011;54708;43.612;1.568;2023-03-15T12:25:19;4.95;;;1.10;;
67902;SDS011;54708;43.612;1.568;2023-03-15T12:28:09;1.83;;;1.27;;
67902;SDS011;54708;43.612;1.568;2023-03-15T12:30:44;3.33;;;1.30;;
67902;SDS011;54708;43.612;1.568;2023-03-15T12:33:13;1.30;;;0.65;;
67902;SDS011;54708;43.612;1.568;2023-03-15T12:35:40;3.00;;;0.80;;
67902;SDS011;54708;43.612;1.568;2023-03-15T12:38:16;0.93;;;0.68;;
67902;SDS011;54708;43.612;1.568;2023-03-15T12:40:53;2.78;;;0.95;;
67902;SDS011;54708;43.612;1.568;2023-03-15T12:49:11;1.88;;;1.15;;
67902;SDS011;54708;43.612;1.568;2023-03-15T12:51:58;1.95;;;1.15;;
67902;SDS011;54708;43.612;1.568;2023-03-15T12:54:45;1.25;;;0.90;;
67902;SDS011;54708;43.612;1.568;2023-03-15T12:57:20;2.50;;;0.68;;
67902;SDS011;54708;43.612;1.568;2023-03-15T12:59:50;3.75;;;0.75;;
67902;SDS011;54708;43.612;1.568;2023-03-15T13:02:35;0.93;;;0.60;;
67902;SDS011;54708;43.612;1.568;2023-03-15T13:18:47;1.33;;;0.60;;
67902;SDS011;54708;43.612;1.568;2023-03-15T13:24:02;1.60;;;0.52;;
67902;SDS011;54708;43.612;1.568;2023-03-15T13:26:45;1.85;;;0.63;;
67902;SDS011;54708;43.612;1.568;2023-03-15T13:29:29;1.27;;;0.70;;
67902;SDS011;54708;43.612;1.568;2023-03-15T13:31:59;0.95;;;0.70;;
67902;SDS011;54708;43.612;1.568;2023-03-15T13:34:34;4.13;;;0.90;;
67902;SDS011;54708;43.612;1.568;2023-03-15T13:37:00;2.38;;;0.50;;
67902;SDS011;54708;43.612;1.568;2023-03-15T13:39:32;0.85;;;0.60;;
67902;SDS011;54708;43.612;1.568;2023-03-15T13:44:25;4.38;;;0.60;;
67902;SDS011;54708;43.612;1.568;2023-03-15T13:46:52;0.73;;;0.57;;
67902;SDS011;54708;43.612;1.568;2023-03-15T13:49:18;1.77;;;0.50;;
67902;SDS011;54708;43.612;1.568;2023-03-15T13:51:43;1.13;;;0.60;;
67902;SDS011;54708;43.612;1.568;2023-03-15T13:54:23;2.50;;;0.50;;
67902;SDS011;54708;43.612;1.568;2023-03-15T13:59:49;0.93;;;0.60;;
67902;SDS011;54708;43.612;1.568;2023-03-15T14:02:21;0.52;;;0.40;;
67902;SDS011;54708;43.612;1.568;2023-03-15T14:04:52;0.98;;;0.35;;
67902;SDS011;54708;43.612;1.568;2023-03-15T14:12:32;0.55;;;0.55;;
67902;SDS011;54708;43.612;1.568;2023-03-15T14:14:58;1.52;;;0.65;;
67902;SDS011;54708;43.612;1.568;2023-03-15T14:17:25;1.25;;;1.13;;
67902;SDS011;54708;43.612;1.568;2023-03-15T14:19:52;1.60;;;0.30;;
67902;SDS011;54708;43.612;1.568;2023-03-15T14:22:20;1.38;;;0.60;;
67902;SDS011;54708;43.612;1.568;2023-03-15T14:24:47;0.93;;;0.45;;
67902;SDS011;54708;43.612;1.568;2023-03-15T14:27:16;0.90;;;0.60;;
67902;SDS011;54708;43.612;1.568;2023-03-15T14:29:47;2.05;;;0.55;;
67902;SDS011;54708;43.612;1.568;2023-03-15T14:32:22;0.98;;;0.65;;
67902;SDS011;54708;43.612;1.568;2023-03-15T14:34:48;1.40;;;0.60;;
67902;SDS011;54708;43.612;1.568;2023-03-15T14:43:02;0.63;;;0.47;;
67902;SDS011;54708;43.612;1.568;2023-03-15T14:45:29;0.75;;;0.35;;
67902;SDS011;54708;43.612;1.568;2023-03-15T14:47:59;0.98;;;0.60;;
67902;SDS011;54708;43.612;1.568;2023-03-15T14:50:36;0.35;;;0.35;;
67902;SDS011;54708;43.612;1.568;2023-03-15T14:53:02;0.70;;;0.70;;
67902;SDS011;54708;43.612;1.568;2023-03-15T14:55:30;1.38;;;0.50;;
67902;SDS011;54708;43.612;1.568;2023-03-15T14:57:58;0.20;;;0.20;;
67902;SDS011;54708;43.612;1.568;2023-03-15T15:00:25;0.30;;;0.30;;
67902;SDS011;54708;43.612;1.568;2023-03-15T15:02:51;1.38;;;0.40;;
67902;SDS011;54708;43.612;1.568;2023-03-15T15:05:20;0.60;;;0.60;;
67902;SDS011;54708;43.612;1.568;2023-03-15T15:07:47;1.75;;;0.47;;
67902;SDS011;54708;43.612;1.568;2023-03-15T15:10:14;0.47;;;0.30;;
67902;SDS011;54708;43.612;1.568;2023-03-15T15:12:39;1.60;;;0.60;;
67902;SDS011;54708;43.612;1.568;2023-03-15T15:15:23;0.40;;;0.40;;
67902;SDS011;54708;43.612;1.568;2023-03-15T15:17:49;1.02;;;0.57;;
67902;SDS011;54708;43.612;1.568;2023-03-15T15:20:14;2.90;;;0.80;;
67902;SDS011;54708;43.612;1.568;2023-03-15T15:22:41;0.52;;;0.50;;
67902;SDS011;54708;43.612;1.568;2023-03-15T15:27:38;1.23;;;0.50;;
67902;SDS011;54708;43.612;1.568;2023-03-15T15:30:04;3.17;;;0.47;;
67902;SDS011;54708;43.612;1.568;2023-03-15T15:32:30;1.00;;;0.60;;
67902;SDS011;54708;43.612;1.568;2023-03-15T15:34:58;0.30;;;0.30;;
67902;SDS011;54708;43.612;1.568;2023-03-15T15:37:23;3.00;;;0.85;;
67902;SDS011;54708;43.612;1.568;2023-03-15T15:39:49;0.40;;;0.40;;
67902;SDS011;54708;43.612;1.568;2023-03-15T15:42:14;2.47;;;0.68;;
67902;SDS011;54708;43.612;1.568;2023-03-15T15:44:40;0.82;;;0.60;;
67902;SDS011;54708;43.612;1.568;2023-03-15T15:47:05;0.40;;;0.38;;
67902;SDS011;54708;43.612;1.568;2023-03-15T15:49:31;2.05;;;0.52;;
67902;SDS011;54708;43.612;1.568;2023-03-15T15:51:56;0.77;;;0.50;;
67902;SDS011;54708;43.612;1.568;2023-03-15T15:54:25;2.55;;;0.50;;
67902;SDS011;54708;43.612;1.568;2023-03-15T15:56:55;0.40;;;0.40;;
67902;SDS011;54708;43.612;1.568;2023-03-15T15:59:21;1.45;;;0.52;;
67902;SDS011;54708;43.612;1.568;2023-03-15T16:01:50;0.57;;;0.40;;
67902;SDS011;54708;43.612;1.568;2023-03-15T16:04:15;2.28;;;0.63;;
67902;SDS011;54708;43.612;1.568;2023-03-15T16:06:41;1.13;;;0.50;;
67902;SDS011;54708;43.612;1.568;2023-03-15T16:09:07;0.40;;;0.40;;
67902;SDS011;54708;43.612;1.568;2023-03-15T16:11:35;0.50;;;0.50;;
67902;SDS011;54708;43.612;1.568;2023-03-15T16:14:00;0.50;;;0.50;;
67902;SDS011;54708;43.612;1.568;2023-03-15T16:16:26;0.50;;;0.50;;
67902;SDS011;54708;43.612;1.568;2023-03-15T16:18:51;0.57;;;0.57;;
67902;SDS011;54708;43.612;1.568;2023-03-15T16:23:55;0.40;;;0.40;;